• Join FlightAware (Why Join?)
  • Login
  • US Flag 
Gobble Gobble! 
04:54AM EST


 

Airport Tracker/Info


-or-


 

Live Flight TrackerFlight Track Log ✈ EGF2982 ✈ 07-Apr-2013 ✈ KDFW - KGRK

Flight Track Log - Related Links

Times and Time Zones

All times are in EDT time to prevent confusion due to time zone crossing. See the EGF2982 flight status page for this flight to view local times or setup timezone preferences in your user account.

Time Position Orientation Groundspeed Altitude Reporting Facility
EDT Latitude Longitude Course Direction KTS MPH feet Rate Location/Type
07:44PM 32.8667 -97.0500 145° Southeast 175 201 2,100  Level Dallas / Fort Worth TRACON
07:45PM 32.8167 -97.0500 180° South 188 216 5,100 2,400 Climbing Dallas / Fort Worth TRACON
07:46PM 32.6513 -97.1461 157° South  Level Estimated
07:47PM 32.5695 -97.1820 214° Southwest  Level Estimated
07:47PM 32.6992 -97.0581 183° South 211 243 9,300  Level Fort Worth Center
07:48PM 32.4876 -97.2179 205° Southwest  Level Estimated
07:48PM 32.6492 -97.0728 194° South 217 250 10,800  Level Fort Worth Center
07:49PM 32.4164 -97.1582 145° Southeast  Level FlightAware Approximate
07:49PM 32.5719 -97.1003 197° South 246 283 12,000  Level Fort Worth Center
07:50PM 32.4969 -97.1203 193° South 290 334 13,000 1,560 Climbing Fort Worth Center
07:51PM 32.4094 -97.1500 196° South 307 353 15,100 1,440 Climbing Fort Worth Center
07:52PM 32.3300 -97.1725 193° South 312 359 16,000 360 Climbing Fort Worth Center
07:53PM 32.2403 -97.2367 211° Southwest 332 382 15,900  Descending Fort Worth Center
07:54PM 32.1819 -97.2981 222° Southwest 337 388 16,100 60 Climbing Fort Worth Center
07:55PM 32.1047 -97.3742 220° Southwest 331 381 16,100  Level Fort Worth Center
07:56PM 32.0464 -97.4356 222° Southwest 323 372 16,100  Level Fort Worth Center
07:57PM 31.9731 -97.5089 220° Southwest 323 372 16,100 -540 Level Fort Worth Center
07:58PM 31.9083 -97.5725 220° Southwest 316 364 15,100 -1,380 Descending Fort Worth Center
07:59PM 31.8478 -97.6358 222° Southwest 294 338 13,500 -1,140 Descending Fort Worth Center
08:00PM 31.7975 -97.6847 220° Southwest 270 311 13,000 -300 Descending Fort Worth Center
08:01PM 31.7369 -97.7431 219° Southwest 266 306 13,000 -240 Level Fort Worth Center
08:02PM 31.6825 -97.7967 220° Southwest 269 310 12,600 -1,200 Descending Fort Worth Center
08:03PM 31.6281 -97.8525 221° Southwest 255 293 10,600 -2,040 Descending Fort Worth Center
08:04PM 31.5672 -97.8961 211° Southwest 253 291 8,600 -2,040 Descending Fort Worth Center
08:05PM 31.4983 -97.8933 178° South 257 296 6,600 -1,800 Descending Fort Worth Center
08:06PM 31.4253 -97.8906 178° South 253 291 5,000 -1,440 Descending Fort Worth Center
08:07PM 31.3647 -97.8878 178° South 231 266 3,700 -960 Descending Fort Worth Center
08:08PM 31.3064 -97.8850 178° South 225 259 3,000 -300 Descending Fort Worth Center
08:09PM 31.2478 -97.8800 176° South 219 252 3,100 60 Climbing Fort Worth Center